YKBN weather

Kooralbyn Airport
Queensland, Australia

Public forecast

Using degrees Celsius for public forecast. Weather courtesy of forecast.io.

METAR (pilot weather report)

Closest report is RAAF Base Amberley, 27.9 nm (51.7 km) NNW. Retrieved 2019/02/19 22:30 UTC (25 minutes ago):

YAMB 192230Z 14006KT 110V180 9999 SCT028 27/20 Q1009 NOSIG

TAF (pilot weather forecast)

Forecast is more than 12 hours old.

Closest forecast is RAAF Base Amberley, 27.9 nm (51.7 km) NNW. Retrieved 2019/02/19 06:00 UTC (17 hours ago):

TAF YAMB 190533Z 1906/1924 06015KT CAVOK FM191000 09008KT 9999 FEW020 FM191500 VRB03KT 9999 SCT020